Time;durP1;ratioP1;P1;durP2;ratioP2;P2;SDS_P1;SDS_P2;PMS_P1;PMS_P2;Temp;Humidity;BMP_temperature;BMP_pressure;BME280_temperature;BME280_humidity;BME280_pressure;Samples;Min_cycle;Max_cycle;Signal;HPM_P1;HPM_P2
2022/08/12 00:42:56;;;;;;;8.10;6.80;;;;;;;;;;5053888;28;20885;-49
2022/08/12 00:45:22;;;;;;;6.90;6.20;;;;;;;;;;5064426;28;20803;-50
2022/08/12 00:47:48;;;;;;;7.53;6.30;;;;;;;;;;5073358;28;20506;-50
2022/08/12 00:50:18;;;;;;;6.63;5.80;;;;;;;;;;5072699;28;20411;-50
2022/08/12 00:52:46;;;;;;;9.90;6.27;;;;;;;;;;5072314;28;20477;-50
2022/08/12 00:55:12;;;;;;;10.03;6.73;;;;;;;;;;5073375;28;20394;-50
2022/08/12 00:57:42;;;;;;;6.57;5.87;;;;;;;;;;5073094;28;20492;-50
2022/08/12 01:00:09;;;;;;;8.33;6.20;;;;;;;;;;5072493;28;20403;-50
2022/08/12 01:02:36;;;;;;;7.10;6.50;;;;;;;;;;5072104;28;20402;-50
2022/08/12 01:13:26;;;;;;;7.00;6.37;;;;;;;;;;5052921;28;20525;-50
2022/08/12 01:15:54;;;;;;;6.00;5.60;;;;;;;;;;5053052;28;20416;-50
2022/08/12 01:18:21;;;;;;;6.63;6.03;;;;;;;;;;5052979;28;20403;-49
2022/08/12 01:21:02;;;;;;;8.50;6.60;;;;;;;;;;5052218;28;20401;-50
2022/08/12 01:23:35;;;;;;;9.03;6.20;;;;;;;;;;5052487;28;20870;-51
2022/08/12 01:26:03;;;;;;;6.17;5.30;;;;;;;;;;5052814;28;20402;-49
2022/08/12 01:28:30;;;;;;;6.60;6.00;;;;;;;;;;5052717;28;20792;-49
2022/08/12 01:30:57;;;;;;;6.93;6.33;;;;;;;;;;5051954;28;20402;-50
2022/08/12 01:33:24;;;;;;;8.80;6.37;;;;;;;;;;5053021;28;20450;-50
2022/08/12 01:35:59;;;;;;;7.63;6.93;;;;;;;;;;5052112;28;20405;-50
2022/08/12 01:38:25;;;;;;;7.20;6.53;;;;;;;;;;5052540;28;20399;-49
2022/08/12 01:40:52;;;;;;;6.83;6.33;;;;;;;;;;5051567;28;20450;-49
2022/08/12 01:43:20;;;;;;;7.23;6.53;;;;;;;;;;5052387;28;20946;-49
2022/08/12 01:45:58;;;;;;;8.00;6.43;;;;;;;;;;5052403;28;20421;-50
2022/08/12 01:48:42;;;;;;;6.83;6.13;;;;;;;;;;5052326;28;20455;-51
2022/08/12 01:51:14;;;;;;;8.10;7.40;;;;;;;;;;5051742;28;20470;-50
2022/08/12 01:53:40;;;;;;;7.50;6.90;;;;;;;;;;5052294;28;20455;-49
2022/08/12 01:56:06;;;;;;;6.87;6.37;;;;;;;;;;5052186;28;20465;-50
2022/08/12 02:01:23;;;;;;;9.30;6.53;;;;;;;;;;5052506;28;20406;-49
2022/08/12 02:12:42;;;;;;;6.97;6.37;;;;;;;;;;5051894;28;20979;-49
2022/08/12 02:15:16;;;;;;;10.03;7.47;;;;;;;;;;5051951;28;20405;-51
2022/08/12 02:17:52;;;;;;;7.70;6.97;;;;;;;;;;5051811;28;20421;-50
2022/08/12 02:20:30;;;;;;;12.30;7.33;;;;;;;;;;5051299;28;20462;-49
2022/08/12 02:22:56;;;;;;;10.40;7.60;;;;;;;;;;5050172;28;20898;-49
2022/08/12 02:25:25;;;;;;;8.50;7.10;;;;;;;;;;5052057;28;20812;-49
2022/08/12 02:27:52;;;;;;;9.23;6.90;;;;;;;;;;5051735;28;20495;-50
2022/08/12 02:30:20;;;;;;;7.57;6.97;;;;;;;;;;5050964;28;20425;-49
2022/08/12 02:32:48;;;;;;;8.00;7.00;;;;;;;;;;5050734;28;20444;-50
2022/08/12 02:35:15;;;;;;;7.20;6.60;;;;;;;;;;5051790;28;20404;-50
2022/08/12 02:37:43;;;;;;;7.50;7.00;;;;;;;;;;5051657;28;20420;-49
2022/08/12 02:40:11;;;;;;;8.53;7.67;;;;;;;;;;5051008;28;20523;-49
2022/08/12 02:42:38;;;;;;;7.97;7.13;;;;;;;;;;5051727;28;20751;-49
2022/08/12 02:45:07;;;;;;;8.00;7.20;;;;;;;;;;5051678;28;20405;-49
2022/08/12 02:47:34;;;;;;;8.20;7.40;;;;;;;;;;5054100;28;20429;-49
2022/08/12 02:50:02;;;;;;;8.97;8.07;;;;;;;;;;5054944;28;20402;-51
2022/08/12 02:52:28;;;;;;;9.00;8.10;;;;;;;;;;5055670;28;20943;-49
2022/08/12 02:55:01;;;;;;;8.47;7.67;;;;;;;;;;5059791;28;20401;-49
2022/08/12 02:57:27;;;;;;;9.87;8.87;;;;;;;;;;5056987;28;20445;-49
2022/08/12 02:59:53;;;;;;;8.67;7.80;;;;;;;;;;5054575;28;20450;-49
2022/08/12 03:02:21;;;;;;;16.87;9.90;;;;;;;;;;5055657;28;20409;-49
2022/08/12 03:04:49;;;;;;;8.70;7.87;;;;;;;;;;5055525;28;20484;-48
2022/08/12 03:07:21;;;;;;;8.73;7.93;;;;;;;;;;5055494;28;20421;-49
2022/08/12 03:09:51;;;;;;;13.20;8.70;;;;;;;;;;5055148;28;20436;-49
2022/08/12 03:12:17;;;;;;;8.70;8.00;;;;;;;;;;5055291;28;20474;-48
2022/08/12 03:14:44;;;;;;;13.23;8.27;;;;;;;;;;5055427;28;20749;-49
2022/08/12 03:17:13;;;;;;;9.20;8.17;;;;;;;;;;5055142;28;20425;-49
2022/08/12 03:19:44;;;;;;;9.10;8.23;;;;;;;;;;5054851;28;20402;-53
2022/08/12 03:22:13;;;;;;;9.50;8.63;;;;;;;;;;5055219;28;20455;-49
2022/08/12 03:24:44;;;;;;;9.40;8.00;;;;;;;;;;5055190;28;20461;-49
2022/08/12 03:27:11;;;;;;;16.67;9.20;;;;;;;;;;5054558;28;20476;-49
2022/08/12 03:29:38;;;;;;;9.80;8.43;;;;;;;;;;5054834;28;20401;-49
2022/08/12 03:32:04;;;;;;;9.70;7.87;;;;;;;;;;5054481;28;20448;-50
2022/08/12 03:34:34;;;;;;;10.67;7.80;;;;;;;;;;5054898;28;20848;-49
2022/08/12 03:37:01;;;;;;;14.40;8.60;;;;;;;;;;5054990;28;20417;-49
2022/08/12 03:39:40;;;;;;;8.40;7.60;;;;;;;;;;5054785;28;20493;-49
2022/08/12 03:42:12;;;;;;;9.90;8.97;;;;;;;;;;5054544;28;20399;-49
2022/08/12 04:01:39;;;;;;;9.33;8.40;;;;;;;;;;5054227;28;20811;-49
2022/08/12 04:04:05;;;;;;;11.40;8.83;;;;;;;;;;5054550;28;20864;-48
2022/08/12 04:06:31;;;;;;;9.40;8.50;;;;;;;;;;5054319;28;20416;-48
2022/08/12 04:08:58;;;;;;;10.57;9.60;;;;;;;;;;5054299;28;20895;-49
2022/08/12 04:14:18;;;;;;;10.87;9.23;;;;;;;;;;5054400;28;20544;-49
2022/08/12 04:16:45;;;;;;;9.60;8.80;;;;;;;;;;5054542;28;20526;-49
2022/08/12 04:19:12;;;;;;;11.93;8.63;;;;;;;;;;5062544;28;20414;-49
2022/08/12 04:21:38;;;;;;;9.93;9.03;;;;;;;;;;5073449;28;20790;-49
2022/08/12 04:24:05;;;;;;;11.50;9.40;;;;;;;;;;5074096;28;20397;-49
2022/08/12 04:26:31;;;;;;;10.87;9.20;;;;;;;;;;5073940;28;20407;-49
2022/08/12 04:28:58;;;;;;;13.20;9.40;;;;;;;;;;5073776;28;20395;-49
2022/08/12 04:31:30;;;;;;;11.07;9.40;;;;;;;;;;5073488;28;20755;-50
2022/08/12 04:33:57;;;;;;;13.03;9.40;;;;;;;;;;5073871;28;20451;-49
2022/08/12 04:36:23;;;;;;;10.30;9.27;;;;;;;;;;5073742;28;20416;-49
2022/08/12 04:38:50;;;;;;;11.97;9.67;;;;;;;;;;5073694;28;20393;-49
2022/08/12 04:41:17;;;;;;;15.03;10.03;;;;;;;;;;5070317;28;20902;-49
2022/08/12 04:43:43;;;;;;;13.57;9.97;;;;;;;;;;5054134;28;20452;-49
2022/08/12 04:46:10;;;;;;;10.40;9.40;;;;;;;;;;5053703;28;20858;-49
2022/08/12 04:48:36;;;;;;;10.87;9.77;;;;;;;;;;5053500;28;20445;-49
2022/08/12 04:51:02;;;;;;;10.00;8.83;;;;;;;;;;5052835;28;20433;-49
2022/08/12 04:53:29;;;;;;;11.73;9.37;;;;;;;;;;5053478;28;20464;-49
2022/08/12 04:55:56;;;;;;;17.40;9.73;;;;;;;;;;5053317;28;20420;-49
2022/08/12 04:58:22;;;;;;;10.27;9.30;;;;;;;;;;5053276;28;20416;-49
2022/08/12 05:00:48;;;;;;;22.13;10.03;;;;;;;;;;5052698;28;20399;-49
2022/08/12 05:03:14;;;;;;;11.03;8.87;;;;;;;;;;5053286;28;20908;-49
2022/08/12 05:05:40;;;;;;;10.17;9.27;;;;;;;;;;5053254;28;20388;-48
2022/08/12 05:08:16;;;;;;;11.73;10.13;;;;;;;;;;5061239;28;20820;-49
2022/08/12 05:10:43;;;;;;;16.37;9.43;;;;;;;;;;5071833;28;20472;-49
2022/08/12 05:13:10;;;;;;;11.10;9.87;;;;;;;;;;5072959;28;20450;-49
2022/08/12 05:15:37;;;;;;;9.83;9.03;;;;;;;;;;5073031;28;20403;-49
2022/08/12 05:18:04;;;;;;;13.20;10.03;;;;;;;;;;5072940;28;20427;-49
2022/08/12 05:20:30;;;;;;;11.03;9.50;;;;;;;;;;5072273;28;20487;-49
2022/08/12 05:23:09;;;;;;;10.07;9.10;;;;;;;;;;5072830;28;20428;-49
2022/08/12 05:25:35;;;;;;;13.40;10.60;;;;;;;;;;5073016;28;20408;-49
2022/08/12 05:28:04;;;;;;;9.37;8.40;;;;;;;;;;5072721;28;20432;-49
2022/08/12 05:30:31;;;;;;;11.43;9.47;;;;;;;;;;5072015;28;20404;-49
2022/08/12 05:32:57;;;;;;;9.53;8.63;;;;;;;;;;5070020;28;20472;-49
2022/08/12 05:35:23;;;;;;;10.97;9.17;;;;;;;;;;5058990;28;20928;-49
2022/08/12 05:38:54;;;;;;;9.57;8.57;;;;;;;;;;5072755;28;20425;-49
2022/08/12 05:40:40;;;;;;;9.70;8.80;;;;;;;;;;5071690;28;20491;-49
2022/08/12 05:43:06;;;;;;;10.23;9.23;;;;;;;;;;5072464;28;20412;-49
2022/08/12 05:45:32;;;;;;;15.83;9.70;;;;;;;;;;5072417;28;20405;-48
2022/08/12 05:47:58;;;;;;;10.80;9.27;;;;;;;;;;5072291;28;20412;-49
2022/08/12 05:50:25;;;;;;;12.80;9.40;;;;;;;;;;5071755;28;20986;-49
2022/08/12 05:52:51;;;;;;;10.23;8.00;;;;;;;;;;5072272;28;20952;-49
2022/08/12 05:55:19;;;;;;;10.17;9.10;;;;;;;;;;5072348;28;20454;-49
2022/08/12 05:57:48;;;;;;;10.63;8.83;;;;;;;;;;5072078;28;20469;-48
2022/08/12 06:00:16;;;;;;;10.03;8.57;;;;;;;;;;5060014;28;20790;-48
2022/08/12 06:02:42;;;;;;;12.30;8.03;;;;;;;;;;5052186;28;20410;-49
2022/08/12 06:05:09;;;;;;;9.03;8.13;;;;;;;;;;5052201;28;20459;-48
2022/08/12 06:07:40;;;;;;;9.10;8.27;;;;;;;;;;5052117;28;20868;-51
2022/08/12 06:10:06;;;;;;;11.10;8.10;;;;;;;;;;5051503;28;20411;-49
2022/08/12 06:12:32;;;;;;;8.93;7.40;;;;;;;;;;5051977;28;20801;-49
2022/08/12 06:14:58;;;;;;;9.37;8.20;;;;;;;;;;5051940;28;20448;-49
2022/08/12 06:17:24;;;;;;;8.53;7.83;;;;;;;;;;5051890;28;20456;-49
2022/08/12 06:19:50;;;;;;;7.93;7.13;;;;;;;;;;5051606;28;20397;-49
2022/08/12 06:22:16;;;;;;;7.90;7.13;;;;;;;;;;5050848;28;20912;-49
2022/08/12 06:24:42;;;;;;;10.20;7.80;;;;;;;;;;5051355;28;20411;-50
2022/08/12 06:27:08;;;;;;;9.40;7.57;;;;;;;;;;5052935;28;20449;-49
2022/08/12 06:29:35;;;;;;;9.40;6.90;;;;;;;;;;5051606;28;20542;-49
2022/08/12 06:32:01;;;;;;;9.57;7.73;;;;;;;;;;5051181;28;20452;-50
2022/08/12 06:34:30;;;;;;;8.90;7.90;;;;;;;;;;5051815;28;20400;-49
2022/08/12 06:36:56;;;;;;;7.80;7.00;;;;;;;;;;5051678;28;20419;-49
2022/08/12 06:39:22;;;;;;;7.70;6.90;;;;;;;;;;5051619;28;20399;-49
2022/08/12 06:44:33;;;;;;;7.77;6.97;;;;;;;;;;5051662;28;20400;-49
2022/08/12 06:46:59;;;;;;;9.27;8.33;;;;;;;;;;5051628;28;20412;-49
2022/08/12 06:49:27;;;;;;;9.33;6.77;;;;;;;;;;5051569;28;20900;-49
2022/08/12 06:51:54;;;;;;;7.77;7.07;;;;;;;;;;5051336;28;20919;-49
2022/08/12 06:54:20;;;;;;;9.23;7.20;;;;;;;;;;5051575;28;20396;-49
2022/08/12 06:56:46;;;;;;;7.43;6.73;;;;;;;;;;5051310;28;20461;-49
2022/08/12 06:59:14;;;;;;;15.00;6.40;;;;;;;;;;5051949;28;20437;-49
2022/08/12 07:01:40;;;;;;;8.37;7.50;;;;;;;;;;5069883;28;20488;-49
2022/08/12 07:04:06;;;;;;;7.40;6.70;;;;;;;;;;5071247;28;20434;-49
2022/08/12 07:06:32;;;;;;;12.77;7.33;;;;;;;;;;5069754;28;20448;-49
2022/08/12 07:08:58;;;;;;;7.00;6.30;;;;;;;;;;5071644;28;20440;-50
2022/08/12 07:11:24;;;;;;;7.70;6.87;;;;;;;;;;5070715;28;20415;-50
2022/08/12 07:13:52;;;;;;;6.60;5.90;;;;;;;;;;5071248;28;20951;-50
2022/08/12 07:16:18;;;;;;;11.87;8.40;;;;;;;;;;5071409;28;20451;-50
2022/08/12 07:18:46;;;;;;;12.00;7.77;;;;;;;;;;5053705;28;20426;-50
2022/08/12 07:21:13;;;;;;;15.43;7.70;;;;;;;;;;5050747;28;20403;-50
2022/08/12 07:23:40;;;;;;;7.70;7.00;;;;;;;;;;5051163;28;20405;-50
2022/08/12 07:26:07;;;;;;;6.93;6.30;;;;;;;;;;5051168;28;20407;-50
2022/08/12 07:28:34;;;;;;;8.43;7.03;;;;;;;;;;5051221;28;20484;-50
2022/08/12 07:31:07;;;;;;;6.87;6.27;;;;;;;;;;5050548;28;20842;-49
2022/08/12 07:33:37;;;;;;;8.13;6.67;;;;;;;;;;5052427;28;20609;-50
2022/08/12 07:36:05;;;;;;;9.43;5.97;;;;;;;;;;5054867;28;20828;-50
2022/08/12 07:38:32;;;;;;;5.77;5.20;;;;;;;;;;5054809;28;20745;-50
2022/08/12 07:41:01;;;;;;;9.03;5.07;;;;;;;;;;5054177;28;20404;-50
2022/08/12 07:43:28;;;;;;;6.23;5.63;;;;;;;;;;5054662;28;20574;-50
2022/08/12 07:45:55;;;;;;;7.30;5.80;;;;;;;;;;5065157;28;20433;-50
2022/08/12 07:48:21;;;;;;;6.93;5.90;;;;;;;;;;5074799;28;20414;-50
2022/08/12 07:50:47;;;;;;;7.03;5.83;;;;;;;;;;5073910;28;20801;-50
2022/08/12 07:53:13;;;;;;;7.57;5.93;;;;;;;;;;5074537;28;20541;-50
2022/08/12 07:55:39;;;;;;;7.00;4.70;;;;;;;;;;5074750;28;20424;-50
2022/08/12 07:58:05;;;;;;;6.50;5.10;;;;;;;;;;5074382;28;21005;-50
2022/08/12 08:00:33;;;;;;;4.93;4.53;;;;;;;;;;5074227;28;20407;-50
2022/08/12 08:02:59;;;;;;;10.73;4.20;;;;;;;;;;5074480;28;20440;-49
2022/08/12 08:05:26;;;;;;;5.47;4.27;;;;;;;;;;5074254;28;20409;-49
2022/08/12 08:07:56;;;;;;;4.87;4.47;;;;;;;;;;5074226;28;20962;-50
2022/08/12 08:10:22;;;;;;;4.50;4.10;;;;;;;;;;5057340;28;20433;-51
2022/08/12 08:12:54;;;;;;;5.50;4.53;;;;;;;;;;5054081;28;20465;-49
2022/08/12 08:15:30;;;;;;;5.70;3.60;;;;;;;;;;5054274;28;20397;-50
2022/08/12 08:18:00;;;;;;;8.37;4.03;;;;;;;;;;5054427;28;20417;-51
2022/08/12 08:20:27;;;;;;;4.90;3.87;;;;;;;;;;5053352;28;20450;-49
2022/08/12 08:22:57;;;;;;;3.33;3.13;;;;;;;;;;5054078;28;20425;-50
2022/08/12 08:25:30;;;;;;;6.77;3.23;;;;;;;;;;5053970;28;20437;-50
2022/08/12 08:27:56;;;;;;;3.60;3.20;;;;;;;;;;5053930;28;20417;-50
2022/08/12 08:30:22;;;;;;;10.07;3.37;;;;;;;;;;5052985;28;20402;-49
2022/08/12 08:32:48;;;;;;;4.63;3.07;;;;;;;;;;5053816;28;20456;-50
2022/08/12 08:35:14;;;;;;;3.00;2.70;;;;;;;;;;5054246;28;20436;-50
2022/08/12 08:37:45;;;;;;;3.33;3.03;;;;;;;;;;5053662;28;20413;-50
2022/08/12 08:42:55;;;;;;;2.80;2.10;;;;;;;;;;5053619;28;20408;-50
2022/08/12 08:45:21;;;;;;;3.00;2.70;;;;;;;;;;5052787;28;20812;-50
2022/08/12 08:47:48;;;;;;;4.00;2.60;;;;;;;;;;5053761;28;20782;-50
2022/08/12 08:50:15;;;;;;;2.77;2.57;;;;;;;;;;5052738;28;20413;-50
2022/08/12 08:52:44;;;;;;;2.80;2.60;;;;;;;;;;5053350;28;20456;-49
2022/08/12 08:55:15;;;;;;;4.90;2.10;;;;;;;;;;5053421;28;20479;-50
2022/08/12 08:57:48;;;;;;;2.47;2.20;;;;;;;;;;5053093;28;20444;-50
2022/08/12 09:00:14;;;;;;;3.03;2.37;;;;;;;;;;5052692;28;20416;-50
2022/08/12 09:02:40;;;;;;;2.07;1.97;;;;;;;;;;5052891;28;20437;-50
2022/08/12 09:05:07;;;;;;;2.10;1.90;;;;;;;;;;5060062;28;20491;-50
2022/08/12 09:07:46;;;;;;;3.50;2.07;;;;;;;;;;5092472;28;20447;-50
2022/08/12 09:10:12;;;;;;;4.50;2.63;;;;;;;;;;5092958;28;20806;-50
2022/08/12 09:15:24;;;;;;;2.53;2.33;;;;;;;;;;5094257;28;20480;-51
2022/08/12 09:17:54;;;;;;;4.60;2.20;;;;;;;;;;5093141;28;20469;-50
2022/08/12 09:20:21;;;;;;;2.40;1.90;;;;;;;;;;5092267;28;20391;-50
2022/08/12 09:22:48;;;;;;;2.30;2.10;;;;;;;;;;5093192;28;20879;-51
2022/08/12 09:25:15;;;;;;;2.07;1.97;;;;;;;;;;5093285;28;20516;-50
2022/08/12 09:27:41;;;;;;;2.53;2.33;;;;;;;;;;5067532;28;20445;-50
2022/08/12 09:30:14;;;;;;;2.63;2.03;;;;;;;;;;5051935;28;20401;-50
2022/08/12 09:32:41;;;;;;;1.97;1.80;;;;;;;;;;5052463;28;20448;-51
2022/08/12 09:35:07;;;;;;;3.17;2.23;;;;;;;;;;5052434;28;20539;-50
2022/08/12 09:37:33;;;;;;;3.10;1.80;;;;;;;;;;5052416;28;20428;-50
2022/08/12 09:39:59;;;;;;;3.17;2.27;;;;;;;;;;5051620;28;20402;-50
2022/08/12 09:45:21;;;;;;;2.90;2.10;;;;;;;;;;5032872;28;20175;-50
2022/08/12 09:47:48;;;;;;;3.60;2.30;;;;;;;;;;5052188;28;20425;-52
2022/08/12 09:50:15;;;;;;;4.50;2.37;;;;;;;;;;5051464;28;20405;-51
2022/08/12 09:52:41;;;;;;;2.40;2.20;;;;;;;;;;5052172;28;20534;-50
2022/08/12 09:55:11;;;;;;;2.20;2.10;;;;;;;;;;5060144;28;20435;-50
2022/08/12 09:57:37;;;;;;;2.43;2.17;;;;;;;;;;5071890;28;20817;-50
2022/08/12 10:00:10;;;;;;;3.53;2.00;;;;;;;;;;5071045;28;20414;-50
2022/08/12 10:02:37;;;;;;;2.70;2.00;;;;;;;;;;5071915;28;20894;-52
2022/08/12 10:05:08;;;;;;;2.27;2.17;;;;;;;;;;5071916;28;20435;-50
2022/08/12 10:07:34;;;;;;;2.80;2.20;;;;;;;;;;5071904;28;20923;-51
2022/08/12 10:10:00;;;;;;;2.20;2.00;;;;;;;;;;5071048;28;20923;-50
2022/08/12 10:15:11;;;;;;;4.60;2.07;;;;;;;;;;5071939;28;20227;-51
2022/08/12 10:17:37;;;;;;;2.10;2.00;;;;;;;;;;5071637;28;20444;-50
2022/08/12 10:20:04;;;;;;;2.53;2.33;;;;;;;;;;5059529;28;20452;-51
2022/08/12 10:22:30;;;;;;;2.50;2.23;;;;;;;;;;5071748;28;20197;-50
2022/08/12 10:30:25;;;;;;;1.93;1.80;;;;;;;;;;5071269;28;20403;-51
2022/08/12 10:32:58;;;;;;;2.00;1.90;;;;;;;;;;5071554;28;20452;-51
2022/08/12 10:35:30;;;;;;;2.30;2.03;;;;;;;;;;5071583;28;20401;-51
2022/08/12 10:37:56;;;;;;;2.00;1.80;;;;;;;;;;5071552;28;20490;-51
2022/08/12 10:40:23;;;;;;;2.00;1.90;;;;;;;;;;5070961;28;20497;-51
2022/08/12 10:45:33;;;;;;;2.03;1.83;;;;;;;;;;5057745;28;20474;-51
2022/08/12 10:48:00;;;;;;;2.13;1.80;;;;;;;;;;5059202;28;20531;-51
2022/08/12 10:50:27;;;;;;;2.00;1.90;;;;;;;;;;5070753;28;20169;-51
2022/08/12 10:52:53;;;;;;;1.80;1.70;;;;;;;;;;5071170;28;20455;-52
2022/08/12 10:55:19;;;;;;;2.40;1.83;;;;;;;;;;5071563;28;20486;-51
2022/08/12 10:57:45;;;;;;;4.40;2.43;;;;;;;;;;5071295;28;20201;-51
2022/08/12 11:00:11;;;;;;;2.23;2.03;;;;;;;;;;5070686;28;20163;-51
2022/08/12 11:02:47;;;;;;;2.57;2.37;;;;;;;;;;5071043;28;20540;-51
2022/08/12 11:05:14;;;;;;;3.67;2.13;;;;;;;;;;5071606;28;20404;-51
2022/08/12 11:07:40;;;;;;;2.43;2.23;;;;;;;;;;5071923;28;20499;-50
2022/08/12 11:10:06;;;;;;;2.17;2.00;;;;;;;;;;5072172;28;20439;-51
2022/08/12 11:12:34;;;;;;;2.10;2.00;;;;;;;;;;5057909;28;20876;-51
2022/08/12 11:15:00;;;;;;;2.17;2.07;;;;;;;;;;5055068;28;20484;-51
2022/08/12 11:17:27;;;;;;;1.90;1.80;;;;;;;;;;5055301;28;20872;-51
2022/08/12 11:19:53;;;;;;;2.50;1.87;;;;;;;;;;5054433;28;20169;-52
2022/08/12 11:22:19;;;;;;;1.90;1.80;;;;;;;;;;5054910;28;20491;-52
2022/08/12 11:24:45;;;;;;;1.87;1.77;;;;;;;;;;5054833;28;20228;-51
2022/08/12 11:27:11;;;;;;;2.07;1.93;;;;;;;;;;5054920;28;20201;-51
2022/08/12 11:29:37;;;;;;;2.03;1.90;;;;;;;;;;5055140;28;20471;-51
2022/08/12 11:32:03;;;;;;;1.80;1.70;;;;;;;;;;5054679;28;20250;-51
2022/08/12 11:34:29;;;;;;;2.13;2.00;;;;;;;;;;5054860;28;20885;-51
2022/08/12 11:37:01;;;;;;;2.00;1.90;;;;;;;;;;5054465;28;20431;-51
2022/08/12 11:39:27;;;;;;;1.97;1.87;;;;;;;;;;5060829;28;20516;-52
2022/08/12 11:41:53;;;;;;;1.90;1.80;;;;;;;;;;5073966;28;20841;-51
2022/08/12 11:44:19;;;;;;;2.40;2.20;;;;;;;;;;5074559;28;20224;-50
2022/08/12 11:46:45;;;;;;;2.40;2.30;;;;;;;;;;5074572;28;20413;-51
2022/08/12 11:49:11;;;;;;;2.07;1.97;;;;;;;;;;5074687;28;20479;-51
2022/08/12 11:51:38;;;;;;;2.27;2.07;;;;;;;;;;5073950;28;20397;-51
2022/08/12 11:54:04;;;;;;;2.00;1.80;;;;;;;;;;5074380;28;20492;-52
2022/08/12 11:56:30;;;;;;;2.70;1.80;;;;;;;;;;5074407;28;20420;-53
2022/08/12 11:58:56;;;;;;;1.70;1.60;;;;;;;;;;5074150;28;20509;-53
2022/08/12 12:01:22;;;;;;;1.90;1.80;;;;;;;;;;5073809;28;20397;-53
2022/08/12 12:03:49;;;;;;;1.97;1.80;;;;;;;;;;5074472;28;20903;-54
2022/08/12 12:06:16;;;;;;;1.93;1.83;;;;;;;;;;5066864;28;20476;-53
2022/08/12 12:08:42;;;;;;;2.23;1.93;;;;;;;;;;5057005;28;20437;-51
2022/08/12 12:11:08;;;;;;;2.43;2.00;;;;;;;;;;5053804;28;20409;-51
2022/08/12 12:13:34;;;;;;;2.10;1.90;;;;;;;;;;5054384;28;20449;-51
2022/08/12 12:16:00;;;;;;;3.50;2.00;;;;;;;;;;5054214;28;20409;-52
2022/08/12 12:18:27;;;;;;;2.80;1.60;;;;;;;;;;5054301;28;20198;-52
2022/08/12 12:20:55;;;;;;;1.60;1.50;;;;;;;;;;5053330;28;20405;-52
2022/08/12 12:23:21;;;;;;;3.77;1.67;;;;;;;;;;5054118;28;20413;-52
2022/08/12 12:25:47;;;;;;;3.43;1.70;;;;;;;;;;5056065;28;20401;-51
2022/08/12 12:28:14;;;;;;;3.27;2.03;;;;;;;;;;5074012;28;20424;-52
2022/08/12 12:30:40;;;;;;;1.50;1.40;;;;;;;;;;5073151;28;20463;-51
2022/08/12 12:33:07;;;;;;;2.37;1.90;;;;;;;;;;5073725;28;20531;-50
2022/08/12 12:35:33;;;;;;;4.13;1.80;;;;;;;;;;5068487;28;20424;-51
2022/08/12 12:38:00;;;;;;;2.37;1.70;;;;;;;;;;5073600;28;20793;-51
2022/08/12 12:40:28;;;;;;;2.70;1.70;;;;;;;;;;5072781;28;20525;-51
2022/08/12 12:42:54;;;;;;;1.97;1.50;;;;;;;;;;5073577;28;20484;-53
2022/08/12 12:45:20;;;;;;;2.57;1.90;;;;;;;;;;5073706;28;20401;-52
2022/08/12 12:47:56;;;;;;;4.23;1.67;;;;;;;;;;5073292;28;20938;-51
2022/08/12 12:50:24;;;;;;;2.30;1.93;;;;;;;;;;5072616;28;20514;-51
2022/08/12 12:52:50;;;;;;;2.90;2.10;;;;;;;;;;5073241;28;20843;-51
2022/08/12 12:55:16;;;;;;;2.90;2.10;;;;;;;;;;5073330;28;20404;-51
2022/08/12 12:57:44;;;;;;;2.33;1.40;;;;;;;;;;5073329;28;20883;-51
2022/08/12 13:00:17;;;;;;;2.00;1.80;;;;;;;;;;5068430;28;20433;-51
2022/08/12 13:02:54;;;;;;;2.20;2.00;;;;;;;;;;5053267;28;20401;-51
2022/08/12 13:05:21;;;;;;;3.00;1.97;;;;;;;;;;5053028;28;20404;-53
2022/08/12 13:07:47;;;;;;;2.53;1.47;;;;;;;;;;5052978;28;20425;-51
2022/08/12 13:10:14;;;;;;;2.60;1.70;;;;;;;;;;5052341;28;20447;-51
2022/08/12 13:12:41;;;;;;;1.90;1.80;;;;;;;;;;5053122;28;20648;-52
2022/08/12 13:15:08;;;;;;;1.80;1.70;;;;;;;;;;5052945;28;20455;-52
2022/08/12 13:17:34;;;;;;;2.43;1.70;;;;;;;;;;5052765;28;20417;-51
2022/08/12 13:20:03;;;;;;;1.83;1.73;;;;;;;;;;5051906;28;20397;-52
2022/08/12 13:22:29;;;;;;;1.70;1.60;;;;;;;;;;5052786;28;20492;-52
2022/08/12 13:24:58;;;;;;;2.27;1.73;;;;;;;;;;5052723;28;20405;-52
2022/08/12 13:27:28;;;;;;;2.43;2.33;;;;;;;;;;5054923;28;20535;-52
2022/08/12 13:29:55;;;;;;;2.00;1.77;;;;;;;;;;5051743;28;20405;-52
2022/08/12 13:32:22;;;;;;;1.70;1.60;;;;;;;;;;5052268;28;20455;-52
2022/08/12 13:34:52;;;;;;;2.00;1.90;;;;;;;;;;5052921;28;20497;-52
2022/08/12 13:37:27;;;;;;;1.60;1.50;;;;;;;;;;5052420;28;20916;-52
2022/08/12 13:39:53;;;;;;;2.47;1.60;;;;;;;;;;5051812;28;20396;-51
2022/08/12 13:42:21;;;;;;;2.50;1.67;;;;;;;;;;5052516;28;20827;-52
2022/08/12 13:44:51;;;;;;;1.70;1.60;;;;;;;;;;5052340;28;20398;-52
2022/08/12 13:47:17;;;;;;;1.70;1.60;;;;;;;;;;5052151;28;20432;-53
2022/08/12 13:49:45;;;;;;;3.47;1.80;;;;;;;;;;5051453;28;20487;-52
2022/08/12 13:52:11;;;;;;;1.80;1.70;;;;;;;;;;5052195;28;20397;-52
2022/08/12 13:54:37;;;;;;;1.50;1.40;;;;;;;;;;5052143;28;20424;-52
2022/08/12 13:57:03;;;;;;;1.70;1.60;;;;;;;;;;5052470;28;20467;-52
2022/08/12 13:59:29;;;;;;;1.83;1.73;;;;;;;;;;5051830;28;20978;-51
2022/08/12 14:01:56;;;;;;;3.53;1.90;;;;;;;;;;5051839;28;20433;-52
2022/08/12 14:04:22;;;;;;;1.73;1.60;;;;;;;;;;5051993;28;20181;-51
2022/08/12 14:06:50;;;;;;;1.47;1.37;;;;;;;;;;5051925;28;20432;-52
2022/08/12 14:09:16;;;;;;;3.03;2.10;;;;;;;;;;5052031;28;20405;-52
2022/08/12 14:11:43;;;;;;;1.80;1.70;;;;;;;;;;5051620;28;20429;-52
2022/08/12 14:14:10;;;;;;;1.70;1.60;;;;;;;;;;5051675;28;20456;-52
2022/08/12 14:16:36;;;;;;;1.80;1.70;;;;;;;;;;5051757;28;20526;-52
2022/08/12 14:19:02;;;;;;;1.80;1.70;;;;;;;;;;5051845;28;20406;-52
2022/08/12 14:21:28;;;;;;;1.90;1.70;;;;;;;;;;5050981;28;20813;-52
2022/08/12 14:23:54;;;;;;;2.43;1.90;;;;;;;;;;5051751;28;20249;-51
2022/08/12 14:26:23;;;;;;;3.20;1.87;;;;;;;;;;5051710;28;20484;-52
2022/08/12 14:28:49;;;;;;;2.10;1.80;;;;;;;;;;5051330;28;20433;-52
2022/08/12 14:31:15;;;;;;;4.00;2.07;;;;;;;;;;5068736;28;20435;-52
2022/08/12 14:33:47;;;;;;;1.97;1.77;;;;;;;;;;5071502;28;20794;-52
2022/08/12 14:36:14;;;;;;;3.03;1.90;;;;;;;;;;5071574;28;20798;-53
2022/08/12 14:38:41;;;;;;;3.00;1.60;;;;;;;;;;5067404;28;20412;-52
2022/08/12 14:41:08;;;;;;;1.90;1.70;;;;;;;;;;5054458;28;20459;-52
2022/08/12 14:43:38;;;;;;;2.27;2.17;;;;;;;;;;5069082;28;20431;-52
2022/08/12 14:46:05;;;;;;;1.83;1.60;;;;;;;;;;5057205;28;20421;-50
2022/08/12 14:48:31;;;;;;;2.67;1.63;;;;;;;;;;5062850;28;20409;-52
2022/08/12 14:50:57;;;;;;;1.93;1.57;;;;;;;;;;5058306;28;20785;-52
2022/08/12 14:53:23;;;;;;;1.80;1.70;;;;;;;;;;5060322;28;20456;-52
2022/08/12 14:55:49;;;;;;;2.00;1.80;;;;;;;;;;5053010;28;20767;-52
2022/08/12 14:58:16;;;;;;;1.87;1.77;;;;;;;;;;5062411;28;20523;-53
2022/08/12 15:03:28;;;;;;;4.90;1.93;;;;;;;;;;5060562;28;21045;-51
2022/08/12 15:05:56;;;;;;;1.50;1.40;;;;;;;;;;5068108;28;20462;-52
2022/08/12 15:08:23;;;;;;;2.80;1.50;;;;;;;;;;5071350;28;20392;-52
2022/08/12 15:10:49;;;;;;;2.60;1.60;;;;;;;;;;5070604;28;20400;-52
2022/08/12 15:13:16;;;;;;;1.47;1.37;;;;;;;;;;5068033;28;20449;-53
2022/08/12 15:15:42;;;;;;;2.60;1.70;;;;;;;;;;5065505;28;20415;-53
2022/08/12 15:18:09;;;;;;;1.60;1.50;;;;;;;;;;5071257;28;20416;-52
2022/08/12 15:20:36;;;;;;;1.40;1.30;;;;;;;;;;5070550;28;20454;-53
2022/08/12 15:23:02;;;;;;;2.00;1.70;;;;;;;;;;5056807;28;20405;-52
2022/08/12 15:25:29;;;;;;;2.40;1.50;;;;;;;;;;5050786;28;20408;-52
2022/08/12 15:27:58;;;;;;;1.63;1.53;;;;;;;;;;5051118;28;20492;-51
2022/08/12 15:30:24;;;;;;;1.50;1.40;;;;;;;;;;5050398;28;20793;-53
2022/08/12 15:32:52;;;;;;;1.83;1.57;;;;;;;;;;5051041;28;20453;-51
2022/08/12 15:35:18;;;;;;;4.07;1.80;;;;;;;;;;5050821;28;20416;-51
2022/08/12 15:37:45;;;;;;;3.20;1.87;;;;;;;;;;5049270;28;20427;-51
2022/08/12 15:40:12;;;;;;;2.07;1.50;;;;;;;;;;5050368;28;20408;-51
2022/08/12 15:42:38;;;;;;;1.90;1.80;;;;;;;;;;5051599;28;20456;-51
2022/08/12 15:45:04;;;;;;;3.23;1.90;;;;;;;;;;5051002;28;20432;-51
2022/08/12 15:47:30;;;;;;;4.80;2.47;;;;;;;;;;5050795;28;20451;-50
2022/08/12 15:49:57;;;;;;;2.90;1.97;;;;;;;;;;5050197;28;20484;-51
2022/08/12 15:52:24;;;;;;;1.77;1.67;;;;;;;;;;5050139;28;20449;-51
2022/08/12 15:54:50;;;;;;;1.70;1.60;;;;;;;;;;5051848;28;20402;-51
2022/08/12 15:57:18;;;;;;;2.50;1.67;;;;;;;;;;5053770;28;20447;-52
2022/08/12 15:59:45;;;;;;;1.90;1.80;;;;;;;;;;5052370;28;20774;-51
2022/08/12 16:02:17;;;;;;;2.40;2.30;;;;;;;;;;5054278;28;20393;-51
2022/08/12 16:04:43;;;;;;;1.70;1.60;;;;;;;;;;5054480;28;20893;-51
2022/08/12 16:07:09;;;;;;;2.60;1.50;;;;;;;;;;5054224;28;20512;-51
2022/08/12 16:09:35;;;;;;;1.90;1.80;;;;;;;;;;5060610;28;20443;-53
2022/08/12 16:12:02;;;;;;;1.90;1.80;;;;;;;;;;5073568;28;20454;-50
2022/08/12 16:14:32;;;;;;;3.10;1.40;;;;;;;;;;5074088;28;20400;-51
2022/08/12 16:17:00;;;;;;;5.00;1.90;;;;;;;;;;5073876;28;20458;-51
2022/08/12 16:19:26;;;;;;;5.73;1.80;;;;;;;;;;5073891;28;20479;-51
2022/08/12 16:21:52;;;;;;;1.70;1.60;;;;;;;;;;5072983;28;20397;-51
2022/08/12 16:24:19;;;;;;;2.93;1.70;;;;;;;;;;5073982;28;20411;-51
2022/08/12 16:26:45;;;;;;;1.80;1.70;;;;;;;;;;5073867;28;20424;-51
2022/08/12 16:29:11;;;;;;;2.13;1.90;;;;;;;;;;5059964;28;20913;-50